createdAt,value
2022-12-01T00:01:03.987Z,101787.17
2022-12-01T00:03:36.665Z,101792.17
2022-12-01T00:06:11.862Z,101791.67
2022-12-01T00:09:06.723Z,101791.86
2022-12-01T00:11:39.931Z,101791.69
2022-12-01T00:14:11.747Z,101788.27
2022-12-01T00:16:44.738Z,101780.31
2022-12-01T00:19:17.927Z,101776.58
2022-12-01T00:21:50.261Z,101773.88
2022-12-01T00:24:23.689Z,101773.65
2022-12-01T00:26:55.939Z,101774.23
2022-12-01T00:29:28.538Z,101768.88
2022-12-01T00:32:00.797Z,101763.73
2022-12-01T00:34:33.237Z,101760.05
2022-12-01T00:37:05.648Z,101758.29
2022-12-01T00:39:37.891Z,101753.85
2022-12-01T00:42:13.278Z,101753.49
2022-12-01T00:44:45.992Z,101754.96
2022-12-01T00:47:18.619Z,101756.59
2022-12-01T00:49:52.530Z,101762.80
2022-12-01T00:52:24.839Z,101762.04
2022-12-01T00:54:57.131Z,101763.73
2022-12-01T00:57:29.435Z,101765.23
2022-12-01T01:00:01.688Z,101766.09
2022-12-01T01:02:34.099Z,101769.52
2022-12-01T01:05:07.182Z,101773.46
2022-12-01T01:07:39.793Z,101773.56
2022-12-01T01:10:13.617Z,101769.09
2022-12-01T01:12:45.889Z,101765.48
2022-12-01T01:15:18.291Z,101758.15
2022-12-01T01:17:50.665Z,101758.08
2022-12-01T01:20:23.593Z,101755.42
2022-12-01T01:22:55.863Z,101752.70
2022-12-01T01:25:28.171Z,101746.00
2022-12-01T01:28:00.630Z,101739.39
2022-12-01T01:30:32.965Z,101737.99
2022-12-01T01:33:05.299Z,101741.12
2022-12-01T01:35:37.576Z,101736.23
2022-12-01T01:38:09.803Z,101730.59
2022-12-01T01:40:46.778Z,101729.05
2022-12-01T01:43:39.066Z,101725.27
2022-12-01T01:46:14.489Z,101722.11
2022-12-01T01:48:51.170Z,101732.52
2022-12-01T01:51:28.374Z,101728.20
2022-12-01T01:54:07.430Z,101733.92
2022-12-01T01:56:39.987Z,101733.80
2022-12-01T01:59:13.975Z,101731.98
2022-12-01T02:01:46.987Z,101728.05
2022-12-01T02:04:20.579Z,101728.06
2022-12-01T02:06:52.989Z,101728.33
2022-12-01T02:09:26.043Z,101727.02
2022-12-01T02:12:11.621Z,101728.70
2022-12-01T02:15:04.360Z,101717.92
2022-12-01T02:17:44.330Z,101718.91
2022-12-01T02:20:43.303Z,101715.52
2022-12-01T02:23:45.262Z,101712.35
2022-12-01T02:26:35.055Z,101705.85
2022-12-01T02:29:39.602Z,101703.49
2022-12-01T02:32:20.571Z,101702.33
2022-12-01T02:35:00.390Z,101696.49
2022-12-01T02:37:37.592Z,101693.03
2022-12-01T02:40:19.594Z,101697.58
2022-12-01T02:43:02.629Z,101688.59
2022-12-01T02:45:43.000Z,101696.90
2022-12-01T02:48:21.169Z,101697.13
2022-12-01T02:50:55.193Z,101692.35
2022-12-01T02:53:27.759Z,101689.62
2022-12-01T02:56:01.703Z,101689.88
2022-12-01T02:58:35.411Z,101690.34
2022-12-01T03:01:27.296Z,101693.35
2022-12-01T03:04:24.460Z,101701.65
2022-12-01T03:07:02.575Z,101698.71
2022-12-01T03:09:44.788Z,101700.20
2022-12-01T03:12:28.465Z,101702.61
2022-12-01T03:15:10.692Z,101705.23
2022-12-01T03:17:51.590Z,101710.98
2022-12-01T03:20:32.759Z,101712.41
2022-12-01T03:23:10.923Z,101713.33
2022-12-01T03:25:46.684Z,101712.64
2022-12-01T03:28:28.948Z,101710.02
2022-12-01T03:31:05.235Z,101706.05
2022-12-01T03:33:44.024Z,101704.48
2022-12-01T03:36:21.904Z,101701.27
2022-12-01T03:38:59.949Z,101703.91
2022-12-01T03:41:37.326Z,101703.61
2022-12-01T03:44:13.519Z,101697.40
2022-12-01T03:46:53.302Z,101694.27
2022-12-01T03:49:27.134Z,101695.19
2022-12-01T03:52:09.005Z,101698.59
2022-12-01T03:54:50.412Z,101697.29
2022-12-01T03:57:28.539Z,101692.63
2022-12-01T04:00:01.189Z,101688.02
2022-12-01T04:02:33.966Z,101690.98
2022-12-01T04:05:09.438Z,101690.33
2022-12-01T04:07:42.382Z,101683.32
2022-12-01T04:10:15.246Z,101686.77
2022-12-01T04:12:47.524Z,101686.04
2022-12-01T04:15:19.890Z,101683.71
2022-12-01T04:17:52.203Z,101685.08
2022-12-01T04:20:24.855Z,101682.91
2022-12-01T04:22:57.056Z,101684.14
2022-12-01T04:25:29.336Z,101677.36
2022-12-01T04:28:01.552Z,101674.05
2022-12-01T04:30:34.219Z,101680.10
2022-12-01T04:33:06.459Z,101679.40
2022-12-01T04:35:38.752Z,101682.64
2022-12-01T04:38:10.999Z,101684.23
2022-12-01T04:40:43.367Z,101690.13
2022-12-01T04:43:15.589Z,101686.63
2022-12-01T04:45:47.976Z,101693.48
2022-12-01T04:48:20.204Z,101696.64
2022-12-01T04:50:53.154Z,101694.81
2022-12-01T04:53:25.471Z,101689.41
2022-12-01T04:55:57.850Z,101690.75
2022-12-01T04:58:30.666Z,101690.92
2022-12-01T05:01:07.025Z,101690.98
2022-12-01T05:03:40.867Z,101695.55
2022-12-01T05:06:15.256Z,101700.27
2022-12-01T05:08:47.520Z,101707.35
2022-12-01T05:11:20.454Z,101701.08
2022-12-01T05:13:52.792Z,101705.05
2022-12-01T05:16:27.134Z,101702.23
2022-12-01T05:19:18.915Z,101699.80
2022-12-01T05:21:52.138Z,101700.30
2022-12-01T05:24:25.235Z,101700.78
2022-12-01T05:26:57.495Z,101703.23
2022-12-01T05:29:29.815Z,101704.16
2022-12-01T05:32:03.290Z,101704.84
2022-12-01T05:34:35.766Z,101710.25
2022-12-01T05:37:08.090Z,101709.67
2022-12-01T05:39:40.488Z,101712.33
2022-12-01T05:42:12.720Z,101709.49
2022-12-01T05:44:44.975Z,101711.14
2022-12-01T05:47:17.368Z,101707.09
2022-12-01T05:49:49.745Z,101715.77
2022-12-01T05:52:22.251Z,101709.14
2022-12-01T05:54:54.501Z,101716.30
2022-12-01T05:57:26.780Z,101720.42
2022-12-01T05:59:59.040Z,101717.19
2022-12-01T06:02:31.336Z,101717.54
2022-12-01T06:05:03.593Z,101720.02
2022-12-01T06:07:36.741Z,101721.55
2022-12-01T06:10:11.115Z,101720.53
2022-12-01T06:12:44.960Z,101722.00
2022-12-01T06:15:17.259Z,101723.65
2022-12-01T06:17:49.605Z,101724.41
2022-12-01T06:20:23.487Z,101727.87
2022-12-01T06:22:55.899Z,101724.86
2022-12-01T06:25:28.360Z,101727.36
2022-12-01T06:28:01.128Z,101729.56
2022-12-01T06:30:33.412Z,101727.54
2022-12-01T06:33:05.787Z,101733.78
2022-12-01T06:35:38.748Z,101733.06
2022-12-01T06:38:10.963Z,101730.67
2022-12-01T06:40:44.124Z,101730.52
2022-12-01T06:43:16.508Z,101732.12
2022-12-01T06:45:48.766Z,101735.29
2022-12-01T06:48:21.399Z,101728.35
2022-12-01T06:50:53.694Z,101729.98
2022-12-01T06:53:27.508Z,101731.09
2022-12-01T06:56:02.921Z,101723.77
2022-12-01T06:58:35.919Z,101722.92
2022-12-01T07:01:13.638Z,101724.61
2022-12-01T07:03:48.224Z,101720.97
2022-12-01T07:06:20.826Z,101722.93
2022-12-01T07:08:53.767Z,101722.33
2022-12-01T07:11:26.140Z,101722.52
2022-12-01T07:13:59.748Z,101725.20
2022-12-01T07:16:32.113Z,101726.17
2022-12-01T07:19:04.402Z,101727.10
2022-12-01T07:21:36.660Z,101728.79
2022-12-01T07:24:10.219Z,101729.67
2022-12-01T07:26:42.920Z,101728.77
2022-12-01T07:29:15.397Z,101725.81
2022-12-01T07:31:47.659Z,101728.92
2022-12-01T07:34:19.900Z,101733.73
2022-12-01T07:36:52.228Z,101735.23
2022-12-01T07:39:24.542Z,101738.57
2022-12-01T07:41:56.947Z,101739.65
2022-12-01T07:44:29.181Z,101741.17
2022-12-01T07:47:01.532Z,101738.79
2022-12-01T07:49:34.432Z,101741.77
2022-12-01T07:52:07.055Z,101738.55
2022-12-01T07:54:39.372Z,101739.92
2022-12-01T07:57:14.492Z,101737.52
2022-12-01T07:59:47.019Z,101738.05
2022-12-01T08:02:19.671Z,101739.94
2022-12-01T08:04:52.544Z,101742.15
2022-12-01T08:07:29.579Z,101739.42
2022-12-01T08:10:02.620Z,101737.60
2022-12-01T08:12:34.870Z,101740.48
2022-12-01T08:15:08.419Z,101741.55
2022-12-01T08:17:40.692Z,101740.45
2022-12-01T08:20:14.202Z,101739.91
2022-12-01T08:22:46.550Z,101735.19
2022-12-01T08:25:18.978Z,101731.59
2022-12-01T08:27:51.331Z,101732.16
2022-12-01T08:30:23.635Z,101733.77
2022-12-01T08:32:59.088Z,101732.07
2022-12-01T08:35:32.893Z,101732.95
2022-12-01T08:38:05.347Z,101725.10
2022-12-01T08:40:37.683Z,101722.40
2022-12-01T08:43:15.201Z,101728.02
2022-12-01T08:45:55.463Z,101728.19
2022-12-01T08:48:30.012Z,101725.16
2022-12-01T08:51:08.508Z,101726.11
2022-12-01T08:53:45.613Z,101717.42
2022-12-01T08:56:20.352Z,101710.70
2022-12-01T08:58:53.035Z,101704.98
2022-12-01T09:01:26.888Z,101702.49
2022-12-01T09:04:09.431Z,101703.36
2022-12-01T09:06:44.507Z,101702.69
2022-12-01T09:09:18.956Z,101702.85
2022-12-01T09:11:52.638Z,101710.42
2022-12-01T09:14:25.675Z,101700.91
2022-12-01T09:16:58.334Z,101706.54
2022-12-01T09:19:31.220Z,101700.25
2022-12-01T09:22:04.022Z,101699.83
2022-12-01T09:24:36.383Z,101702.35
2022-12-01T09:27:10.606Z,101700.91
2022-12-01T09:29:42.867Z,101695.38
2022-12-01T09:32:15.192Z,101698.14
2022-12-01T09:34:47.612Z,101697.57
2022-12-01T09:37:19.924Z,101699.52
2022-12-01T09:39:52.322Z,101690.24
2022-12-01T09:42:30.868Z,101689.45
2022-12-01T09:45:08.581Z,101689.57
2022-12-01T09:47:42.812Z,101688.56
2022-12-01T09:50:19.610Z,101685.70
2022-12-01T09:52:54.411Z,101686.58
2022-12-01T09:55:30.270Z,101686.54
2022-12-01T09:58:04.767Z,101684.98
2022-12-01T10:00:42.932Z,101682.04
2022-12-01T10:03:26.265Z,101684.35
2022-12-01T10:09:03.824Z,101670.86
2022-12-01T10:11:41.284Z,101668.16
2022-12-01T10:14:20.065Z,101664.02
2022-12-01T10:17:14.450Z,101661.27
2022-12-01T10:19:54.940Z,101662.04
2022-12-01T10:22:50.695Z,101663.74
2022-12-01T10:25:27.685Z,101658.16
2022-12-01T10:28:15.616Z,101658.44
2022-12-01T10:30:52.315Z,101654.71
2022-12-01T10:33:28.151Z,101655.74
2022-12-01T10:36:01.495Z,101650.56
2022-12-01T10:38:37.644Z,101648.77
2022-12-01T10:41:16.515Z,101649.23
2022-12-01T10:43:52.103Z,101646.48
2022-12-01T10:46:30.683Z,101643.13
2022-12-01T10:49:09.280Z,101638.51
2022-12-01T10:51:54.231Z,101631.09
2022-12-01T10:54:37.378Z,101631.89
2022-12-01T10:57:16.934Z,101632.30
2022-12-01T11:00:01.908Z,101632.77
2022-12-01T11:02:35.004Z,101632.98
2022-12-01T11:05:20.352Z,101638.52
2022-12-01T11:07:53.419Z,101636.40
2022-12-01T11:10:27.979Z,101633.07
2022-12-01T11:13:07.237Z,101625.60
2022-12-01T11:15:42.389Z,101628.63
2022-12-01T11:18:29.705Z,101630.36
2022-12-01T11:21:14.029Z,101638.41
2022-12-01T11:23:50.939Z,101638.77
2022-12-01T11:26:25.770Z,101638.16
2022-12-01T11:29:01.246Z,101636.34
2022-12-01T11:31:42.350Z,101633.52
2022-12-01T11:34:23.258Z,101627.50
2022-12-01T11:36:58.401Z,101624.08
2022-12-01T11:39:35.284Z,101627.38
2022-12-01T11:42:20.225Z,101625.09
2022-12-01T11:44:55.985Z,101624.90
2022-12-01T11:47:29.164Z,101621.58
2022-12-01T11:50:04.090Z,101616.64
2022-12-01T11:52:46.426Z,101615.89
2022-12-01T11:55:26.292Z,101611.45
2022-12-01T11:58:01.223Z,101605.52
2022-12-01T12:00:51.807Z,101606.98
2022-12-01T12:03:34.988Z,101602.36
2022-12-01T12:06:39.853Z,101601.07
2022-12-01T12:09:43.356Z,101587.10
2022-12-01T12:12:32.183Z,101588.55
2022-12-01T12:15:13.272Z,101588.67
2022-12-01T12:18:03.318Z,101594.30
2022-12-01T12:20:51.000Z,101594.45
2022-12-01T12:23:42.110Z,101591.27
2022-12-01T12:26:23.199Z,101595.30
2022-12-01T12:29:18.350Z,101590.42
2022-12-01T12:32:06.107Z,101593.89
2022-12-01T12:34:49.118Z,101589.56
2022-12-01T12:37:30.440Z,101583.17
2022-12-01T12:40:23.693Z,101582.86
2022-12-01T12:43:07.448Z,101581.38
2022-12-01T12:45:51.930Z,101581.34
2022-12-01T12:48:36.047Z,101583.23
2022-12-01T12:51:19.893Z,101584.81
2022-12-01T12:54:00.254Z,101591.13
2022-12-01T12:56:35.372Z,101587.20
2022-12-01T12:59:20.338Z,101588.73
2022-12-01T13:01:58.992Z,101590.65
2022-12-01T13:04:39.818Z,101594.73
2022-12-01T13:07:23.678Z,101595.48
2022-12-01T13:10:00.965Z,101593.95
2022-12-01T13:12:37.291Z,101601.17
2022-12-01T13:15:19.749Z,101598.99
2022-12-01T13:17:55.404Z,101598.09
2022-12-01T13:20:30.589Z,101590.30
2022-12-01T13:23:04.754Z,101588.66
2022-12-01T13:25:40.593Z,101583.59
2022-12-01T13:28:20.520Z,101585.63
2022-12-01T13:31:08.089Z,101582.27
2022-12-01T13:33:44.875Z,101588.23
2022-12-01T13:39:18.790Z,101593.69
2022-12-01T13:42:01.857Z,101597.61
2022-12-01T13:44:39.948Z,101596.29
2022-12-01T13:47:48.033Z,101589.40
2022-12-01T13:50:54.627Z,101588.69
2022-12-01T13:53:32.684Z,101592.98
2022-12-01T13:56:39.493Z,101592.91
2022-12-01T14:00:02.704Z,101592.26
2022-12-01T14:02:37.196Z,101592.61
2022-12-01T14:05:46.727Z,101596.56
2022-12-01T14:08:23.500Z,101587.47
2022-12-01T14:10:58.942Z,101578.17
2022-12-01T14:13:32.633Z,101578.74
2022-12-01T14:16:06.606Z,101582.05
2022-12-01T14:18:41.968Z,101587.63
2022-12-01T14:21:15.392Z,101583.34
2022-12-01T14:24:02.285Z,101584.91
2022-12-01T14:26:45.071Z,101583.34
2022-12-01T14:29:38.596Z,101583.76
2022-12-01T14:32:27.136Z,101580.60
2022-12-01T14:35:18.799Z,101577.55
2022-12-01T14:37:53.779Z,101582.35
2022-12-01T14:40:31.142Z,101583.66
2022-12-01T14:43:22.359Z,101579.75
2022-12-01T14:46:07.451Z,101577.39
2022-12-01T14:48:43.203Z,101576.66
2022-12-01T14:51:24.138Z,101567.54
2022-12-01T14:53:58.424Z,101567.04
2022-12-01T14:56:33.748Z,101567.17
2022-12-01T14:59:22.107Z,101574.14
2022-12-01T15:01:58.247Z,101566.84
2022-12-01T15:04:31.080Z,101565.31
2022-12-01T15:07:03.620Z,101563.27
2022-12-01T15:09:36.342Z,101567.85
2022-12-01T15:12:25.968Z,101568.86
2022-12-01T15:14:58.436Z,101564.63
2022-12-01T15:17:34.685Z,101564.31
2022-12-01T15:20:27.864Z,101564.64
2022-12-01T15:23:01.392Z,101565.59
2022-12-01T15:25:37.108Z,101565.48
2022-12-01T15:28:16.619Z,101566.98
2022-12-01T15:30:52.029Z,101569.64
2022-12-01T15:33:28.328Z,101572.40
2022-12-01T15:36:04.113Z,101575.65
2022-12-01T15:38:39.411Z,101579.41
2022-12-01T15:41:35.103Z,101582.56
2022-12-01T15:44:19.002Z,101580.26
2022-12-01T15:46:51.582Z,101583.92
2022-12-01T15:49:29.999Z,101583.70
2022-12-01T15:52:11.901Z,101582.09
2022-12-01T15:54:50.159Z,101580.77
2022-12-01T15:57:23.753Z,101586.21
2022-12-01T15:59:58.615Z,101585.80
2022-12-01T16:02:33.693Z,101590.86
2022-12-01T16:05:16.432Z,101595.58
2022-12-01T16:08:12.649Z,101593.67
2022-12-01T16:10:41.840Z,101593.34
2022-12-01T16:13:39.545Z,101597.71
2022-12-01T16:16:43.070Z,101598.27
2022-12-01T16:19:39.250Z,101609.23
2022-12-01T16:22:20.686Z,101604.04
2022-12-01T16:24:55.643Z,101604.54
2022-12-01T16:27:29.794Z,101601.06
2022-12-01T16:30:06.831Z,101592.63
2022-12-01T16:32:41.744Z,101598.73
2022-12-01T16:35:26.578Z,101597.59
2022-12-01T16:37:59.640Z,101597.27
2022-12-01T16:40:32.005Z,101594.51
2022-12-01T16:43:04.322Z,101597.09
2022-12-01T16:45:36.743Z,101600.46
2022-12-01T16:48:09.634Z,101598.70
2022-12-01T16:50:42.717Z,101600.26
2022-12-01T16:53:15.283Z,101599.19
2022-12-01T16:55:52.861Z,101597.67
2022-12-01T16:58:25.670Z,101596.16
2022-12-01T17:00:58.294Z,101594.70
2022-12-01T17:03:31.489Z,101596.96
2022-12-01T17:06:05.502Z,101596.75
2022-12-01T17:08:37.773Z,101596.98
2022-12-01T17:11:10.195Z,101596.80
2022-12-01T17:13:42.620Z,101592.87
2022-12-01T17:16:18.403Z,101595.06
2022-12-01T17:18:51.336Z,101598.61
2022-12-01T17:21:23.585Z,101600.05
2022-12-01T17:23:55.914Z,101598.77
2022-12-01T17:26:28.857Z,101602.08
2022-12-01T17:29:02.525Z,101601.36
2022-12-01T17:31:34.880Z,101600.23
2022-12-01T17:34:07.144Z,101600.02
2022-12-01T17:36:39.458Z,101601.42
2022-12-01T17:39:11.756Z,101594.05
2022-12-01T17:41:43.995Z,101592.97
2022-12-01T17:44:16.276Z,101587.15
2022-12-01T17:46:48.580Z,101586.61
2022-12-01T17:49:20.916Z,101594.16
2022-12-01T17:51:53.229Z,101595.42
2022-12-01T17:54:25.663Z,101592.52
2022-12-01T17:56:57.918Z,101594.13
2022-12-01T17:59:30.484Z,101601.26
2022-12-01T18:02:02.796Z,101606.55
2022-12-01T18:04:35.592Z,101607.27
2022-12-01T18:07:08.418Z,101612.75
2022-12-01T18:09:41.211Z,101613.67
2022-12-01T18:12:13.552Z,101615.85
2022-12-01T18:14:45.865Z,101614.45
2022-12-01T18:17:18.231Z,101613.88
2022-12-01T18:19:50.508Z,101614.42
2022-12-01T18:22:22.879Z,101622.15
2022-12-01T18:24:56.483Z,101625.34
2022-12-01T18:27:28.770Z,101629.44
2022-12-01T18:30:01.252Z,101629.02
2022-12-01T18:32:33.702Z,101628.52
2022-12-01T18:35:06.771Z,101627.11
2022-12-01T18:37:40.497Z,101626.46
2022-12-01T18:40:14.708Z,101631.97
2022-12-01T18:42:46.969Z,101639.75
2022-12-01T18:45:21.515Z,101641.00
2022-12-01T18:47:53.971Z,101636.15
2022-12-01T18:50:26.233Z,101637.66
2022-12-01T18:52:58.488Z,101637.92
2022-12-01T18:55:30.963Z,101640.80
2022-12-01T18:58:03.305Z,101642.66
2022-12-01T19:00:35.858Z,101648.64
2022-12-01T19:03:08.122Z,101652.77
2022-12-01T19:05:42.695Z,101656.82
2022-12-01T19:08:15.104Z,101661.58
2022-12-01T19:10:47.362Z,101664.12
2022-12-01T19:13:19.596Z,101667.80
2022-12-01T19:15:52.007Z,101669.73
2022-12-01T19:18:24.690Z,101674.34
2022-12-01T19:20:57.050Z,101674.92
2022-12-01T19:23:29.544Z,101683.03
2022-12-01T19:26:05.091Z,101678.21
2022-12-01T19:28:38.559Z,101682.95
2022-12-01T19:31:12.937Z,101681.73
2022-12-01T19:33:45.280Z,101674.79
2022-12-01T19:36:20.274Z,101674.88
2022-12-01T19:38:53.372Z,101678.46
2022-12-01T19:41:26.511Z,101680.21
2022-12-01T19:43:59.346Z,101680.96
2022-12-01T19:46:31.766Z,101681.38
2022-12-01T19:49:05.713Z,101681.48
2022-12-01T19:51:40.248Z,101679.80
2022-12-01T19:54:17.487Z,101677.65
2022-12-01T19:56:50.269Z,101675.98
2022-12-01T19:59:22.568Z,101675.25
2022-12-01T20:01:54.952Z,101677.04
2022-12-01T20:04:27.368Z,101673.49
2022-12-01T20:06:59.738Z,101676.60
2022-12-01T20:09:32.058Z,101673.52
2022-12-01T20:12:04.431Z,101674.52
2022-12-01T20:14:36.734Z,101676.23
2022-12-01T20:17:14.352Z,101678.13
2022-12-01T20:19:48.149Z,101674.45
2022-12-01T20:22:20.441Z,101670.95
2022-12-01T20:24:52.923Z,101669.34
2022-12-01T20:27:25.501Z,101672.90
2022-12-01T20:29:58.018Z,101673.50
2022-12-01T20:32:31.029Z,101676.08
2022-12-01T20:35:03.708Z,101669.64
2022-12-01T20:37:36.262Z,101671.51
2022-12-01T20:40:10.754Z,101673.50
2022-12-01T20:42:43.090Z,101675.00
2022-12-01T20:45:15.554Z,101671.14
2022-12-01T20:47:47.754Z,101671.20
2022-12-01T20:50:20.261Z,101671.60
2022-12-01T20:52:52.571Z,101675.53
2022-12-01T20:55:24.931Z,101671.16
2022-12-01T20:57:57.241Z,101673.92
2022-12-01T21:00:29.590Z,101675.10
2022-12-01T21:03:02.018Z,101679.27
2022-12-01T21:05:34.614Z,101674.19
2022-12-01T21:08:08.283Z,101675.70
2022-12-01T21:10:42.700Z,101676.91
2022-12-01T21:13:38.112Z,101672.33
2022-12-01T21:16:18.347Z,101675.67
2022-12-01T21:18:55.524Z,101672.91
2022-12-01T21:21:29.674Z,101675.17
2022-12-01T21:24:14.638Z,101678.05
2022-12-01T21:26:50.651Z,101672.73
2022-12-01T21:29:26.130Z,101673.89
2022-12-01T21:32:08.410Z,101675.83
2022-12-01T21:34:43.442Z,101681.15
2022-12-01T21:37:22.508Z,101681.27
2022-12-01T21:39:57.695Z,101673.92
2022-12-01T21:42:32.376Z,101675.80
2022-12-01T21:45:07.762Z,101676.31
2022-12-01T21:47:40.122Z,101683.49
2022-12-01T21:50:21.203Z,101687.49
2022-12-01T21:52:53.757Z,101687.37
2022-12-01T21:55:37.478Z,101688.20
2022-12-01T21:58:28.170Z,101687.60
2022-12-01T22:01:02.109Z,101687.83
2022-12-01T22:03:38.810Z,101685.75
2022-12-01T22:06:31.139Z,101683.86
2022-12-01T22:09:20.851Z,101681.52
2022-12-01T22:11:55.880Z,101674.64
2022-12-01T22:14:33.791Z,101667.59
2022-12-01T22:17:20.492Z,101662.61
2022-12-01T22:19:58.329Z,101656.41
2022-12-01T22:22:32.810Z,101647.43
2022-12-01T22:25:21.452Z,101648.06
2022-12-01T22:27:54.903Z,101646.95
2022-12-01T22:30:27.295Z,101642.23
2022-12-01T22:33:03.833Z,101636.86
2022-12-01T22:35:40.270Z,101635.30
2022-12-01T22:38:28.946Z,101629.19
2022-12-01T22:41:05.068Z,101633.39
2022-12-01T22:43:49.337Z,101631.33
2022-12-01T22:46:35.923Z,101624.84
2022-12-01T22:49:19.634Z,101621.50
2022-12-01T22:51:54.237Z,101620.64
2022-12-01T22:54:36.281Z,101619.90
2022-12-01T22:57:31.318Z,101622.83
2022-12-01T23:00:17.276Z,101619.64
2022-12-01T23:02:51.063Z,101612.48
2022-12-01T23:05:27.383Z,101613.52
2022-12-01T23:08:00.223Z,101611.61
2022-12-01T23:10:35.789Z,101616.60
2022-12-01T23:13:17.581Z,101612.59
2022-12-01T23:15:51.879Z,101612.34
2022-12-01T23:18:26.747Z,101614.41
2022-12-01T23:21:00.675Z,101614.88
2022-12-01T23:23:35.096Z,101610.25
2022-12-01T23:26:09.643Z,101613.70
2022-12-01T23:28:42.212Z,101616.15
2022-12-01T23:31:14.535Z,101614.91
2022-12-01T23:33:46.910Z,101616.27
2022-12-01T23:36:23.983Z,101616.50
2022-12-01T23:38:59.323Z,101609.66
2022-12-01T23:41:37.982Z,101612.02
2022-12-01T23:44:19.863Z,101610.14
2022-12-01T23:46:54.916Z,101613.10
2022-12-01T23:49:30.452Z,101612.69
2022-12-01T23:52:04.466Z,101618.01
2022-12-01T23:54:39.584Z,101620.99
2022-12-01T23:57:20.831Z,101623.48
2022-12-01T23:59:56.350Z,101617.59
